Time;durP1;ratioP1;P1;durP2;ratioP2;P2;SDS_P1;SDS_P2;PMS_P1;PMS_P2;Temp;Humidity;BMP_temperature;BMP_pressure;BME280_temperature;BME280_humidity;BME280_pressure;Samples;Min_cycle;Max_cycle;Signal;HPM_P1;HPM_P2
2023/12/13 00:00:34;;;;;;;8.55;2.10;;;;;;;14.53;100.00;101313.06;10586985;27;20039;-77
2023/12/13 00:05:56;;;;;;;8.60;2.20;;;;;;;14.36;100.00;101312.91;10588873;27;20051;-77
2023/12/13 00:11:18;;;;;;;8.85;3.05;;;;;;;14.31;100.00;101303.97;10583143;27;20067;-77
2023/12/13 00:16:42;;;;;;;7.80;3.85;;;;;;;14.11;100.00;101313.50;10587865;27;20051;-77
2023/12/13 00:22:05;;;;;;;10.25;2.80;;;;;;;14.14;100.00;101304.69;10586307;27;20043;-76
2023/12/13 00:27:27;;;;;;;10.13;3.05;;;;;;;14.08;100.00;101312.59;10582845;27;20051;-77
2023/12/13 00:32:51;;;;;;;6.18;2.45;;;;;;;14.29;100.00;101304.84;10568227;27;20051;-77
2023/12/13 00:38:13;;;;;;;8.43;3.00;;;;;;;14.38;100.00;101298.75;10595548;27;20043;-77
2023/12/13 00:43:36;;;;;;;4.72;2.00;;;;;;;14.27;100.00;101301.28;10568898;28;20047;-77
2023/12/13 00:49:00;;;;;;;9.52;2.97;;;;;;;14.01;100.00;101309.00;10570994;28;20056;-77
2023/12/13 00:54:23;;;;;;;5.75;1.83;;;;;;;13.94;100.00;101305.38;10574278;28;20067;-76
2023/12/13 00:59:45;;;;;;;2.95;1.88;;;;;;;13.83;100.00;101300.84;10552956;28;20070;-77
2023/12/13 01:05:09;;;;;;;6.65;2.20;;;;;;;14.01;100.00;101305.44;10579562;28;20083;-77
2023/12/13 01:10:32;;;;;;;8.93;2.10;;;;;;;13.80;100.00;101307.00;10560496;28;20052;-77
2023/12/13 01:15:54;;;;;;;8.65;1.85;;;;;;;13.67;100.00;101305.06;10553713;28;20531;-78
2023/12/13 01:21:18;;;;;;;5.40;1.75;;;;;;;13.77;100.00;101306.97;10570220;28;20044;-77
2023/12/13 01:26:40;;;;;;;6.40;3.70;;;;;;;13.80;100.00;101304.34;10542637;28;20559;-77
2023/12/13 01:32:03;;;;;;;6.75;1.98;;;;;;;13.81;100.00;101297.28;10550676;28;20059;-78
2023/12/13 01:37:27;;;;;;;7.75;2.15;;;;;;;13.87;100.00;101292.91;10548408;28;20088;-77
2023/12/13 01:42:50;;;;;;;6.13;1.63;;;;;;;13.70;100.00;101280.34;10568706;28;20040;-77
2023/12/13 01:48:12;;;;;;;3.63;1.80;;;;;;;13.64;100.00;101297.09;10568471;28;20092;-78
2023/12/13 01:53:37;;;;;;;3.55;1.60;;;;;;;13.41;100.00;101286.19;10565432;28;20051;-78
2023/12/13 01:59:00;;;;;;;5.00;1.48;;;;;;;13.33;100.00;101290.50;10583154;27;20043;-78
2023/12/13 02:04:26;;;;;;;8.70;2.47;;;;;;;13.50;100.00;101288.97;10598524;27;20047;-77
2023/12/13 02:09:51;;;;;;;21.13;7.82;;;;;;;13.61;100.00;101278.47;10583058;27;20054;-78
2023/12/13 02:15:14;;;;;;;6.65;1.83;;;;;;;13.45;100.00;101269.47;10569618;27;20054;-77
2023/12/13 02:20:36;;;;;;;4.38;1.48;;;;;;;13.44;100.00;101269.44;10581870;27;20477;-77
2023/12/13 02:26:02;;;;;;;6.05;2.58;;;;;;;13.36;100.00;101272.00;10564267;28;20432;-77
2023/12/13 02:31:27;;;;;;;5.65;1.67;;;;;;;13.54;100.00;101271.31;10582130;27;20047;-78
2023/12/13 02:36:49;;;;;;;6.03;2.03;;;;;;;13.34;100.00;101272.84;10603165;27;20047;-77
2023/12/13 02:42:13;;;;;;;6.88;1.60;;;;;;;13.25;100.00;101278.03;10579440;27;20511;-77
2023/12/13 02:47:38;;;;;;;6.63;1.80;;;;;;;13.14;100.00;101283.19;10562689;27;20077;-77
2023/12/13 02:53:00;;;;;;;3.10;1.63;;;;;;;13.02;100.00;101293.59;10562554;27;20052;-78
2023/12/13 02:58:24;;;;;;;6.47;1.48;;;;;;;13.07;100.00;101287.47;10563138;27;20316;-78
2023/12/13 03:03:46;;;;;;;4.85;1.52;;;;;;;12.99;100.00;101288.25;10586042;27;20047;-77
2023/12/13 03:09:08;;;;;;;7.50;1.85;;;;;;;12.73;100.00;101296.69;10603862;27;20451;-77
2023/12/13 03:14:32;;;;;;;6.10;1.63;;;;;;;12.73;100.00;101299.34;10580951;27;20100;-77
2023/12/13 03:19:55;;;;;;;6.40;1.50;;;;;;;12.72;100.00;101292.28;10588289;27;20137;-77
2023/12/13 03:25:17;;;;;;;9.43;1.67;;;;;;;12.97;100.00;101300.59;10582222;27;20054;-77
2023/12/13 03:30:41;;;;;;;7.93;1.80;;;;;;;12.87;100.00;101306.59;10553976;27;20059;-77
2023/12/13 03:36:04;;;;;;;4.35;1.60;;;;;;;12.82;100.00;101311.84;10578367;27;20371;-77
2023/12/13 03:41:26;;;;;;;5.15;1.80;;;;;;;12.73;100.00;101309.94;10592764;27;20347;-78
2023/12/13 03:46:50;;;;;;;4.50;1.40;;;;;;;12.75;100.00;101312.63;10560341;27;20097;-78
2023/12/13 03:52:12;;;;;;;4.55;1.50;;;;;;;12.75;100.00;101307.31;10600762;27;20063;-77
2023/12/13 03:57:35;;;;;;;6.68;1.50;;;;;;;12.91;100.00;101311.09;10601503;27;20051;-77
2023/12/13 04:02:58;;;;;;;6.18;1.55;;;;;;;12.90;100.00;101322.56;10600502;27;20094;-78
2023/12/13 04:08:21;;;;;;;14.13;5.35;;;;;;;12.97;100.00;101322.69;10585107;27;20128;-77
2023/12/13 04:13:43;;;;;;;4.15;1.75;;;;;;;13.00;100.00;101335.06;10567968;27;20421;-77
2023/12/13 04:19:07;;;;;;;7.93;1.60;;;;;;;12.96;100.00;101342.09;10602057;27;20054;-77
2023/12/13 04:24:30;;;;;;;5.78;1.35;;;;;;;13.02;100.00;101351.91;10560047;27;20043;-77
2023/12/13 04:29:52;;;;;;;3.47;1.70;;;;;;;13.23;100.00;101349.59;10569482;28;20050;-77
2023/12/13 04:35:16;;;;;;;3.97;1.60;;;;;;;13.13;100.00;101353.88;10584760;27;20117;-78
2023/12/13 04:40:40;;;;;;;10.00;2.13;;;;;;;12.82;100.00;101359.53;10581707;27;20035;-77
2023/12/13 04:46:02;;;;;;;8.52;1.70;;;;;;;12.83;100.00;101352.47;10590233;27;20051;-77
2023/12/13 04:51:26;;;;;;;4.32;1.75;;;;;;;13.18;100.00;101366.31;10560016;28;20055;-77
2023/12/13 04:56:49;;;;;;;6.80;3.13;;;;;;;13.41;100.00;101362.22;10566547;28;20392;-78
2023/12/13 05:02:11;;;;;;;2.65;1.63;;;;;;;13.17;100.00;101360.13;10569290;28;20058;-77
2023/12/13 05:07:35;;;;;;;7.55;3.20;;;;;;;13.12;100.00;101365.38;10573400;27;20434;-77
2023/12/13 05:12:57;;;;;;;12.57;8.35;;;;;;;13.28;100.00;101373.50;10597420;28;20043;-77
2023/12/13 05:18:19;;;;;;;19.40;10.25;;;;;;;13.32;100.00;101385.97;10563281;28;20075;-79
2023/12/13 05:23:43;;;;;;;13.48;6.65;;;;;;;13.00;100.00;101394.28;10545646;28;20397;-77
2023/12/13 05:29:06;;;;;;;24.27;11.38;;;;;;;12.86;100.00;101390.53;10580917;28;20104;-77
2023/12/13 05:34:28;;;;;;;12.23;5.80;;;;;;;13.15;100.00;101393.66;10562567;28;20070;-78
2023/12/13 05:39:52;;;;;;;7.50;4.72;;;;;;;13.25;100.00;101402.66;10570037;27;20051;-77
2023/12/13 05:45:15;;;;;;;13.23;3.80;;;;;;;13.12;100.00;101394.53;10582444;27;20134;-78
2023/12/13 05:50:37;;;;;;;5.85;1.75;;;;;;;13.39;100.00;101387.84;10589845;27;20055;-77
2023/12/13 05:56:01;;;;;;;9.65;3.17;;;;;;;13.42;100.00;101390.53;10566652;27;20115;-77
2023/12/13 06:01:24;;;;;;;9.68;4.00;;;;;;;13.46;100.00;101392.34;10576120;27;20408;-78
2023/12/13 06:06:46;;;;;;;6.13;2.35;;;;;;;13.81;100.00;101398.13;10603612;27;20374;-78
2023/12/13 06:12:11;;;;;;;12.25;4.80;;;;;;;14.02;100.00;101405.47;10606417;27;20066;-77
2023/12/13 06:17:33;;;;;;;7.15;2.38;;;;;;;15.76;100.00;101391.00;10568913;27;20128;-77
2023/12/13 06:22:56;;;;;;;6.18;1.83;;;;;;;18.87;100.00;101365.53;10564999;27;20527;-77
2023/12/13 06:28:19;;;;;;;8.38;3.05;;;;;;;21.54;100.00;101376.09;10589979;27;20040;-78
2023/12/13 06:33:42;;;;;;;8.40;1.70;;;;;;;22.92;100.00;101365.84;10577156;27;21369;-78
2023/12/13 06:39:07;;;;;;;5.20;2.53;;;;;;;22.85;100.00;101366.91;10603639;27;20058;-78
2023/12/13 06:44:31;;;;;;;10.70;4.97;;;;;;;23.42;100.00;101371.72;10596116;27;20049;-78
2023/12/13 06:49:53;;;;;;;9.75;1.65;;;;;;;23.20;100.00;101370.50;10590495;27;20066;-77
2023/12/13 06:55:15;;;;;;;7.22;1.98;;;;;;;23.50;100.00;101369.69;10588551;27;20075;-78
2023/12/13 07:00:39;;;;;;;18.05;15.95;;;;;;;23.96;100.00;101380.03;10558146;27;20046;-78
2023/12/13 07:06:04;;;;;;;9.07;5.40;;;;;;;24.77;94.89;101389.22;10622420;27;20148;-78
2023/12/13 07:11:26;;;;;;;9.07;4.60;;;;;;;25.93;82.29;101387.88;10575018;28;20056;-78
2023/12/13 07:16:50;;;;;;;4.40;1.77;;;;;;;27.03;71.06;101378.94;10590902;27;20103;-78
2023/12/13 07:22:12;;;;;;;5.43;2.45;;;;;;;27.04;67.84;101386.13;10590142;27;20036;-78
2023/12/13 07:27:35;;;;;;;9.93;5.30;;;;;;;27.65;64.48;101397.91;10544643;27;20050;-79
2023/12/13 07:32:59;;;;;;;36.00;19.48;;;;;;;28.81;56.57;101402.38;10596390;27;20061;-79
2023/12/13 07:38:22;;;;;;;24.10;12.90;;;;;;;29.50;51.48;101404.28;10600740;27;20051;-78
2023/12/13 07:43:44;;;;;;;7.93;3.72;;;;;;;29.89;49.95;101410.31;10579205;27;20043;-79
2023/12/13 07:49:08;;;;;;;12.20;6.90;;;;;;;30.76;47.86;101408.19;10560391;27;20071;-77
2023/12/13 07:54:31;;;;;;;13.05;5.70;;;;;;;31.23;43.89;101405.41;10564693;27;20043;-78
2023/12/13 07:59:53;;;;;;;18.27;10.77;;;;;;;31.63;41.67;101402.03;10557907;27;20142;-79
2023/12/13 08:05:19;;;;;;;27.55;17.40;;;;;;;31.83;41.00;101402.63;10588785;27;20082;-77
2023/12/13 08:10:43;;;;;;;18.23;10.02;;;;;;;32.08;37.79;101402.84;10600645;27;20104;-78
2023/12/13 08:16:06;;;;;;;14.10;8.52;;;;;;;32.35;37.92;101401.09;10573116;27;20138;-77
2023/12/13 08:21:30;;;;;;;5.03;2.80;;;;;;;33.02;37.20;101402.06;10595562;27;20043;-80
2023/12/13 08:26:52;;;;;;;12.02;4.30;;;;;;;33.13;37.42;101402.25;10578893;27;20062;-79
2023/12/13 08:32:15;;;;;;;6.68;2.60;;;;;;;33.15;36.92;101408.47;10560805;27;20100;-79
2023/12/13 08:37:39;;;;;;;8.68;2.90;;;;;;;33.06;36.94;101414.59;10550172;28;20055;-78
2023/12/13 08:43:01;;;;;;;4.50;1.67;;;;;;;32.82;37.14;101410.78;10559581;28;20099;-78
2023/12/13 08:48:25;;;;;;;13.55;4.82;;;;;;;33.19;36.78;101399.13;10590225;28;20058;-78
2023/12/13 08:53:54;;;;;;;11.35;4.43;;;;;;;32.99;36.46;101402.28;10585953;28;20070;-78
2023/12/13 08:59:16;;;;;;;6.60;3.20;;;;;;;33.87;35.58;101393.38;10598997;28;20127;-79
2023/12/13 09:04:38;;;;;;;6.53;2.83;;;;;;;33.41;35.48;101397.63;10596444;28;20480;-79
2023/12/13 09:10:03;;;;;;;8.07;1.70;;;;;;;34.15;33.84;101386.78;10600581;28;20103;-78
2023/12/13 09:15:26;;;;;;;5.20;0.93;;;;;;;33.96;34.14;101383.63;10564133;28;20056;-79
2023/12/13 09:20:48;;;;;;;5.32;2.72;;;;;;;33.83;34.44;101372.69;10578391;27;20050;-79
2023/12/13 09:26:14;;;;;;;8.15;3.30;;;;;;;34.09;33.93;101362.56;10603846;27;20070;-79
2023/12/13 09:31:36;;;;;;;6.85;1.52;;;;;;;34.23;33.75;101365.22;10586317;27;20083;-79
2023/12/13 09:36:59;;;;;;;5.47;2.40;;;;;;;33.26;34.19;101349.41;10598377;27;20047;-78
2023/12/13 09:42:25;;;;;;;6.88;1.65;;;;;;;33.13;34.78;101352.97;10582916;27;20552;-78
2023/12/13 09:47:49;;;;;;;4.95;1.80;;;;;;;33.68;34.63;101362.78;10599278;27;20047;-78
2023/12/13 09:53:12;;;;;;;4.90;2.47;;;;;;;34.12;33.43;101356.00;10591481;27;20058;-78
2023/12/13 09:58:36;;;;;;;9.10;4.80;;;;;;;33.73;33.60;101343.34;10607772;27;20035;-78
2023/12/13 10:04:00;;;;;;;3.58;1.25;;;;;;;33.17;33.97;101335.34;10594106;27;20036;-85
2023/12/13 10:09:27;;;;;;;5.80;2.00;;;;;;;32.53;35.21;101316.06;10571818;27;20039;-75
2023/12/13 10:14:51;;;;;;;5.25;1.50;;;;;;;31.58;36.97;101308.53;10586489;27;20043;-76
2023/12/13 10:20:13;;;;;;;7.00;2.20;;;;;;;31.40;36.53;101298.78;10585913;27;20043;-75
2023/12/13 10:25:38;;;;;;;4.25;1.67;;;;;;;31.13;37.20;101279.53;10568413;27;20107;-76
2023/12/13 10:31:03;;;;;;;4.43;1.88;;;;;;;31.55;36.99;101266.91;10588664;27;20082;-75
2023/12/13 10:36:27;;;;;;;8.77;1.80;;;;;;;31.95;36.81;101260.66;10587729;27;20050;-76
2023/12/13 10:41:51;;;;;;;4.25;1.70;;;;;;;32.25;36.64;101263.25;10567338;27;20051;-76
2023/12/13 10:47:18;;;;;;;3.42;1.73;;;;;;;31.78;37.30;101255.41;10575888;27;20047;-77
2023/12/13 10:52:42;;;;;;;7.55;2.30;;;;;;;31.01;38.16;101252.09;10577476;27;20507;-82
2023/12/13 10:58:05;;;;;;;3.10;1.55;;;;;;;30.43;39.06;101234.69;10591672;27;20043;-78
2023/12/13 11:03:36;;;;;;;8.43;2.90;;;;;;;30.00;40.36;101238.16;10576599;27;20035;-79
2023/12/13 11:09:09;;;;;;;8.95;2.63;;;;;;;30.11;40.08;101232.97;10561677;28;20047;-78
2023/12/13 11:14:34;;;;;;;7.13;2.08;;;;;;;29.70;40.74;101248.91;10588129;27;20047;-79
2023/12/13 11:19:59;;;;;;;5.43;1.15;;;;;;;29.49;41.46;101244.66;10587571;27;20043;-78
2023/12/13 11:25:21;;;;;;;7.97;1.50;;;;;;;29.01;42.35;101250.91;10593040;27;20132;-78
2023/12/13 11:30:44;;;;;;;11.48;7.80;;;;;;;28.11;42.52;101242.75;10574325;27;20112;-78
2023/12/13 11:36:12;;;;;;;2.15;1.50;;;;;;;27.17;43.67;101240.97;10581145;27;20051;-85
2023/12/13 11:41:36;;;;;;;6.18;4.15;;;;;;;25.99;46.87;101242.34;10584946;27;20039;-77
2023/12/13 11:47:00;;;;;;;6.40;2.28;;;;;;;25.61;48.85;101235.75;10588686;27;20070;-80
2023/12/13 11:52:25;;;;;;;2.72;1.80;;;;;;;25.05;51.51;101239.69;10583087;27;20553;-80
2023/12/13 11:57:48;;;;;;;2.33;1.38;;;;;;;24.55;53.89;101236.94;10561140;27;20546;-80
2023/12/13 12:03:10;;;;;;;2.55;1.02;;;;;;;24.20;57.18;101227.34;10569581;27;20043;-78
2023/12/13 12:08:36;;;;;;;12.88;11.48;;;;;;;24.01;59.44;101229.75;10538461;27;20092;-80
2023/12/13 12:13:59;;;;;;;3.92;1.73;;;;;;;23.79;60.32;101221.44;10601317;27;20055;-79
2023/12/13 12:19:21;;;;;;;6.53;2.08;;;;;;;23.25;64.67;101212.28;10582135;27;20051;-80
2023/12/13 12:24:47;;;;;;;3.00;1.20;;;;;;;22.90;68.16;101208.81;10577068;27;20050;-79
2023/12/13 12:30:12;;;;;;;7.13;1.77;;;;;;;22.45;73.40;101212.72;10567392;28;20126;-80
2023/12/13 12:35:35;;;;;;;11.63;8.02;;;;;;;22.24;78.39;101212.34;10545747;28;20078;-80
2023/12/13 12:40:59;;;;;;;15.43;13.93;;;;;;;;;;10577196;27;20112;-77
2023/12/13 12:46:22;;;;;;;4.30;2.72;;;;;;;22.07;81.54;101219.06;10593525;28;20047;-79
2023/12/13 12:51:44;;;;;;;2.70;1.10;;;;;;;21.76;83.17;101213.50;10603085;27;20058;-78
2023/12/13 12:57:08;;;;;;;4.68;1.63;;;;;;;21.57;88.50;101223.78;10608665;27;20502;-77
2023/12/13 13:02:31;;;;;;;10.93;6.88;;;;;;;21.54;93.92;101222.94;10573714;27;20054;-77
2023/12/13 13:07:53;;;;;;;20.40;18.25;;;;;;;21.60;94.90;101223.69;10566243;28;20044;-77
2023/12/13 13:13:17;;;;;;;20.55;17.10;;;;;;;21.57;93.97;101225.59;10580726;27;20047;-78
2023/12/13 13:18:40;;;;;;;11.70;9.57;;;;;;;21.41;97.88;101219.66;10572369;28;20611;-77
2023/12/13 13:24:02;;;;;;;13.70;8.55;;;;;;;21.33;100.00;101229.69;10568932;27;20047;-78
2023/12/13 13:29:26;;;;;;;9.73;8.05;;;;;;;21.20;100.00;101230.88;10605217;27;20054;-78
2023/12/13 13:34:49;;;;;;;5.38;3.35;;;;;;;20.99;100.00;101224.09;10602892;27;20320;-80
2023/12/13 13:40:12;;;;;;;4.70;1.30;;;;;;;20.83;100.00;101227.97;10568192;28;20089;-81
2023/12/13 13:45:36;;;;;;;9.95;7.18;;;;;;;20.76;100.00;101221.84;10564176;27;20500;-79
2023/12/13 13:51:00;;;;;;;4.22;1.70;;;;;;;20.65;100.00;101232.78;10566987;28;20064;-79
2023/12/13 13:56:23;;;;;;;3.13;1.23;;;;;;;20.46;100.00;101242.06;10581116;28;20524;-79
2023/12/13 14:01:49;;;;;;;3.85;1.65;;;;;;;20.26;100.00;101237.00;10572408;28;20058;-79
2023/12/13 14:07:12;;;;;;;6.63;1.20;;;;;;;19.97;100.00;101238.38;10576749;28;20053;-78
2023/12/13 14:12:36;;;;;;;15.75;11.50;;;;;;;19.84;100.00;101235.88;10558341;28;20548;-78
2023/12/13 14:17:59;;;;;;;15.15;9.93;;;;;;;19.72;100.00;101233.38;10553825;28;20047;-78
2023/12/13 14:23:22;;;;;;;7.68;3.05;;;;;;;19.52;100.00;101231.88;10556347;28;20066;-79
2023/12/13 14:28:44;;;;;;;6.18;1.52;;;;;;;19.38;100.00;101234.72;10527212;28;20050;-78
2023/12/13 14:34:08;;;;;;;4.85;1.10;;;;;;;19.17;100.00;101243.00;10554282;28;20047;-79
2023/12/13 14:39:30;;;;;;;4.72;1.50;;;;;;;19.09;100.00;101257.38;10576053;28;20039;-78
2023/12/13 14:44:53;;;;;;;5.47;1.42;;;;;;;18.92;100.00;101251.31;10576938;28;20059;-78
2023/12/13 14:50:18;;;;;;;6.40;1.40;;;;;;;18.70;100.00;101261.38;10562862;28;20043;-78
2023/12/13 14:55:40;;;;;;;5.80;1.17;;;;;;;18.57;100.00;101266.84;10534783;28;20044;-78
2023/12/13 15:01:03;;;;;;;3.83;1.23;;;;;;;18.41;100.00;101268.72;10566142;28;20043;-79
2023/12/13 15:06:32;;;;;;;6.53;1.48;;;;;;;18.36;100.00;101264.31;10591740;27;20070;-77
2023/12/13 15:11:54;;;;;;;5.97;1.50;;;;;;;18.10;100.00;101262.75;10573749;28;20047;-79
2023/12/13 15:17:16;;;;;;;4.85;1.13;;;;;;;17.99;100.00;101259.22;10591607;27;20096;-79
2023/12/13 15:22:40;;;;;;;3.08;1.45;;;;;;;17.97;100.00;101254.81;10540725;28;20040;-79
2023/12/13 15:28:05;;;;;;;3.72;1.70;;;;;;;17.70;100.00;101272.78;10542561;28;20056;-78
2023/12/13 15:33:29;;;;;;;4.60;1.63;;;;;;;17.62;100.00;101258.59;10564614;28;20044;-79
2023/12/13 15:38:53;;;;;;;3.55;1.40;;;;;;;17.52;100.00;101257.69;10561012;28;20044;-79
2023/12/13 15:44:15;;;;;;;2.83;1.50;;;;;;;17.42;100.00;101263.09;10574661;28;20054;-79
2023/12/13 15:49:38;;;;;;;2.90;1.90;;;;;;;17.17;100.00;101277.44;10535606;28;20087;-79
2023/12/13 15:55:02;;;;;;;6.50;1.98;;;;;;;17.02;100.00;101278.34;10531804;28;20055;-79
2023/12/13 16:00:27;;;;;;;6.63;2.20;;;;;;;16.87;100.00;101270.41;10535288;28;20063;-78
2023/12/13 16:05:49;;;;;;;4.95;2.85;;;;;;;16.66;100.00;101272.22;10573183;28;20051;-79
2023/12/13 16:11:14;;;;;;;8.90;3.25;;;;;;;16.60;100.00;101280.22;10574151;28;20047;-78
2023/12/13 16:16:37;;;;;;;5.35;3.40;;;;;;;16.68;100.00;101283.75;10574816;28;20075;-79
2023/12/13 16:22:00;;;;;;;8.25;4.00;;;;;;;16.76;100.00;101270.41;10547502;28;20075;-78
2023/12/13 16:27:24;;;;;;;7.97;3.17;;;;;;;16.81;100.00;101283.72;10518374;28;20056;-78
2023/12/13 16:32:46;;;;;;;11.68;4.82;;;;;;;16.62;100.00;101281.09;10551803;28;20048;-79
2023/12/13 16:38:12;;;;;;;7.50;4.60;;;;;;;16.46;100.00;101273.97;10560311;28;20439;-78
2023/12/13 16:43:40;;;;;;;8.10;4.25;;;;;;;16.43;100.00;101283.72;10549625;28;20656;-81
2023/12/13 16:49:03;;;;;;;6.33;2.77;;;;;;;16.52;100.00;101295.28;10573235;28;20428;-78
2023/12/13 16:54:25;;;;;;;7.75;3.17;;;;;;;16.64;100.00;101289.09;10598459;28;20050;-78
2023/12/13 16:59:49;;;;;;;10.18;2.88;;;;;;;16.61;100.00;101300.63;10583609;28;20043;-76
2023/12/13 17:05:12;;;;;;;10.73;4.57;;;;;;;16.68;100.00;101315.72;10599460;28;20051;-76
2023/12/13 17:10:34;;;;;;;8.75;4.95;;;;;;;16.81;100.00;101313.94;10575108;28;20047;-75
2023/12/13 17:15:58;;;;;;;11.65;7.03;;;;;;;16.89;100.00;101328.16;10600699;28;20047;-78
2023/12/13 17:21:21;;;;;;;7.75;3.38;;;;;;;16.96;100.00;101318.38;10596695;28;20696;-78
2023/12/13 17:26:48;;;;;;;12.55;3.30;;;;;;;17.19;100.00;101327.25;10597895;28;20049;-77
2023/12/13 17:32:12;;;;;;;13.00;2.93;;;;;;;17.40;100.00;101324.47;10575818;28;20521;-80
2023/12/13 17:37:35;;;;;;;19.30;9.60;;;;;;;17.68;100.00;101327.97;10585217;27;20043;-85
2023/12/13 17:42:57;;;;;;;15.32;9.85;;;;;;;17.70;100.00;101336.00;10607059;27;20092;-77
2023/12/13 17:48:22;;;;;;;19.90;10.73;;;;;;;17.63;100.00;101343.13;10592460;27;20051;-77
2023/12/13 17:53:44;;;;;;;15.60;5.90;;;;;;;17.52;100.00;101331.59;10592837;27;20062;-81
2023/12/13 17:59:07;;;;;;;8.13;3.45;;;;;;;17.61;100.00;101341.34;10600139;27;20054;-79
2023/12/13 18:04:33;;;;;;;8.60;3.10;;;;;;;17.61;100.00;101334.22;10603774;27;20062;-79
2023/12/13 18:09:56;;;;;;;7.05;3.45;;;;;;;17.69;100.00;101344.88;10575783;27;20047;-77
2023/12/13 18:15:18;;;;;;;8.93;2.47;;;;;;;17.92;100.00;101337.63;10600850;27;20055;-77
2023/12/13 18:20:42;;;;;;;12.27;2.58;;;;;;;18.04;100.00;101334.94;10563207;27;20550;-79
2023/12/13 18:26:06;;;;;;;6.38;2.13;;;;;;;18.09;100.00;101341.13;10604332;27;20051;-77
2023/12/13 18:31:29;;;;;;;8.48;2.67;;;;;;;17.99;100.00;101333.16;10581996;27;20047;-78
2023/12/13 18:36:54;;;;;;;8.55;3.38;;;;;;;17.97;100.00;101337.63;10599056;27;20070;-79
2023/12/13 18:42:16;;;;;;;10.52;3.38;;;;;;;17.83;100.00;101343.03;10569862;27;20066;-78
2023/12/13 18:47:38;;;;;;;10.27;2.90;;;;;;;17.89;100.00;101337.66;10585354;27;20039;-78
2023/12/13 18:53:03;;;;;;;8.93;2.80;;;;;;;18.01;100.00;101336.72;10596241;27;20047;-78
2023/12/13 18:58:29;;;;;;;12.57;3.35;;;;;;;18.03;100.00;101337.59;10595999;27;20051;-78
2023/12/13 19:03:52;;;;;;;8.43;2.72;;;;;;;17.79;100.00;101344.81;10588835;27;20039;-78
2023/12/13 19:09:17;;;;;;;12.55;4.22;;;;;;;17.84;100.00;101337.72;10595905;27;20054;-77
2023/12/13 19:14:40;;;;;;;15.82;3.05;;;;;;;17.95;100.00;101336.75;10559885;27;20047;-77
2023/12/13 19:20:03;;;;;;;8.43;3.20;;;;;;;17.75;100.00;101331.50;10576782;27;20055;-78
2023/12/13 19:25:28;;;;;;;7.65;2.90;;;;;;;17.60;100.00;101332.41;10574860;27;20043;-78
2023/12/13 19:30:50;;;;;;;10.63;3.00;;;;;;;17.74;100.00;101338.63;10600666;27;20201;-77
2023/12/13 19:36:13;;;;;;;6.75;2.75;;;;;;;17.79;100.00;101343.94;10587909;27;20050;-77
2023/12/13 19:41:37;;;;;;;4.20;2.10;;;;;;;17.81;100.00;101337.72;10582367;27;20062;-77
2023/12/13 19:47:00;;;;;;;10.18;2.92;;;;;;;17.83;100.00;101335.03;10567997;27;20100;-77
2023/12/13 19:52:22;;;;;;;4.97;2.50;;;;;;;17.86;100.00;101333.22;10581818;27;20039;-79
2023/12/13 19:57:46;;;;;;;7.15;2.63;;;;;;;17.88;100.00;101330.56;10607702;27;20051;-79
2023/12/13 20:03:09;;;;;;;8.50;2.55;;;;;;;17.89;100.00;101333.22;10584280;27;20046;-77
2023/12/13 20:08:32;;;;;;;9.32;2.08;;;;;;;18.08;100.00;101336.69;10595641;27;20413;-77
2023/12/13 20:13:56;;;;;;;9.88;2.70;;;;;;;18.12;100.00;101345.53;10589656;27;20412;-77
2023/12/13 20:19:18;;;;;;;8.32;2.83;;;;;;;18.03;100.00;101351.84;10590076;27;20051;-77
2023/12/13 20:24:41;;;;;;;8.93;2.78;;;;;;;17.91;100.00;101342.13;10572863;27;20051;-79
2023/12/13 20:30:06;;;;;;;7.40;2.10;;;;;;;18.04;100.00;101358.09;10570437;27;20051;-78
2023/12/13 20:35:29;;;;;;;9.88;2.80;;;;;;;18.06;100.00;101350.94;10582592;27;20417;-78
2023/12/13 20:40:51;;;;;;;9.63;2.35;;;;;;;18.08;100.00;101341.13;10594288;27;20050;-77
2023/12/13 20:46:16;;;;;;;8.20;2.85;;;;;;;18.04;100.00;101334.03;10582565;27;20062;-78
2023/12/13 20:51:38;;;;;;;6.68;2.35;;;;;;;18.23;100.00;101336.59;10576223;28;20043;-77
2023/12/13 20:57:01;;;;;;;5.47;2.22;;;;;;;18.10;100.00;101344.69;10584634;28;20055;-78
2023/12/13 21:02:26;;;;;;;8.18;2.10;;;;;;;17.97;100.00;101335.84;10573149;28;20063;-77
2023/12/13 21:07:48;;;;;;;7.60;2.60;;;;;;;17.84;100.00;101311.00;10601917;28;20072;-77
2023/12/13 21:13:11;;;;;;;6.82;2.80;;;;;;;17.84;100.00;101307.44;10580698;27;20054;-77
2023/12/13 21:18:35;;;;;;;8.50;2.10;;;;;;;17.94;100.00;101282.44;10585782;27;20146;-78
2023/12/13 21:23:57;;;;;;;6.93;2.47;;;;;;;17.99;100.00;101275.25;10595520;27;20043;-80
2023/12/13 21:29:20;;;;;;;10.52;2.50;;;;;;;18.14;100.00;101269.81;10603024;27;20043;-78
2023/12/13 21:34:44;;;;;;;12.05;3.50;;;;;;;18.35;100.00;101259.88;10574524;27;20050;-78
2023/12/13 21:40:08;;;;;;;12.13;3.17;;;;;;;18.56;100.00;101267.75;10564052;27;20512;-78
2023/12/13 21:45:31;;;;;;;11.85;2.60;;;;;;;18.52;100.00;101260.59;10569865;27;20043;-78
2023/12/13 21:50:55;;;;;;;11.50;2.70;;;;;;;18.55;100.00;101273.94;10569852;27;20047;-77
2023/12/13 21:56:18;;;;;;;9.45;2.60;;;;;;;18.62;100.00;101268.56;10584853;27;20102;-78
2023/12/13 22:01:40;;;;;;;10.55;2.30;;;;;;;18.55;100.00;101265.94;10573674;27;20460;-79
2023/12/13 22:07:06;;;;;;;11.13;2.50;;;;;;;18.66;100.00;101270.31;10604070;27;20047;-77
2023/12/13 22:12:30;;;;;;;13.75;2.72;;;;;;;18.68;100.00;101265.84;10574332;27;20043;-78
2023/12/13 22:17:54;;;;;;;13.27;2.88;;;;;;;18.67;100.00;101263.16;10566590;27;20072;-78
2023/12/13 22:23:18;;;;;;;13.25;3.28;;;;;;;18.65;100.00;101281.91;10580871;27;20056;-78
2023/12/13 22:28:41;;;;;;;14.35;2.50;;;;;;;18.69;100.00;101264.94;10564489;27;20135;-78
2023/12/13 22:34:03;;;;;;;22.08;3.65;;;;;;;18.60;100.00;101267.69;10567195;27;20043;-78
2023/12/13 22:39:27;;;;;;;25.73;4.35;;;;;;;18.73;100.00;101272.91;10606983;27;20039;-78
2023/12/13 22:44:50;;;;;;;12.95;2.40;;;;;;;18.71;100.00;101272.94;10587822;27;20071;-77
2023/12/13 22:50:12;;;;;;;16.52;3.22;;;;;;;18.61;100.00;101255.22;10606363;27;20051;-78
2023/12/13 22:55:36;;;;;;;12.55;3.17;;;;;;;18.61;100.00;101248.06;10605934;27;20488;-78
2023/12/13 23:00:58;;;;;;;11.38;2.50;;;;;;;18.67;100.00;101231.97;10573805;27;20092;-79
2023/12/13 23:06:21;;;;;;;11.00;2.85;;;;;;;18.71;100.00;101240.84;10589399;27;20062;-78
2023/12/13 23:11:46;;;;;;;15.57;3.25;;;;;;;18.75;100.00;101245.28;10548683;28;20078;-78
2023/12/13 23:17:08;;;;;;;13.25;3.50;;;;;;;18.77;100.00;101255.97;10572655;27;20046;-78
2023/12/13 23:22:31;;;;;;;9.35;2.70;;;;;;;18.78;100.00;101255.03;10557677;27;20054;-78
2023/12/13 23:27:55;;;;;;;16.02;2.83;;;;;;;18.85;100.00;101254.06;10546397;27;20144;-78
2023/12/13 23:33:17;;;;;;;20.20;2.88;;;;;;;18.75;100.00;101239.03;10578252;27;20111;-78
2023/12/13 23:38:40;;;;;;;12.60;2.75;;;;;;;18.73;100.00;101240.81;10570755;27;20047;-78
2023/12/13 23:44:04;;;;;;;14.80;2.88;;;;;;;18.76;100.00;101232.78;10584996;27;20055;-78
2023/12/13 23:49:27;;;;;;;15.82;2.53;;;;;;;18.77;100.00;101239.91;10576886;27;20051;-78
2023/12/13 23:54:49;;;;;;;16.40;3.22;;;;;;;18.70;100.00;101220.38;10578264;27;20148;-79
